sensor_id;sensor_type;location;lat;lon;timestamp;pressure;altitude;pressure_sealevel;temperature;humidity
57708;BME280;43540;51.690;9.562;2023-06-24T10:33:09;100123.94;;;23.81;73.81
57708;BME280;43540;51.690;9.562;2023-06-24T10:35:41;100077.38;;;23.54;70.62
57708;BME280;43540;51.690;9.562;2023-06-24T10:38:10;100132.00;;;24.09;73.43
57708;BME280;43540;51.690;9.562;2023-06-24T10:40:42;100086.06;;;23.78;71.02
57708;BME280;43540;51.690;9.562;2023-06-24T10:43:28;100092.31;;;23.92;75.71
57708;BME280;43540;51.690;9.562;2023-06-24T10:45:58;100098.34;;;24.00;74.65
57708;BME280;43540;51.690;9.562;2023-06-24T10:48:25;100057.16;;;23.73;67.61
57708;BME280;43540;51.690;9.562;2023-06-24T10:50:52;100086.75;;;23.87;68.28
57708;BME280;43540;51.690;9.562;2023-06-24T10:53:19;100127.13;;;24.20;75.71
57708;BME280;43540;51.690;9.562;2023-06-24T10:55:47;100076.78;;;24.08;73.02
57708;BME280;43540;51.690;9.562;2023-06-24T10:58:14;100103.00;;;24.48;72.32
57708;BME280;43540;51.690;9.562;2023-06-24T11:00:42;100108.94;;;24.36;62.67
57708;BME280;43540;51.690;9.562;2023-06-24T11:03:15;100072.50;;;24.14;63.25
57708;BME280;43540;51.690;9.562;2023-06-24T11:05:43;100095.28;;;24.31;60.54
57708;BME280;43540;51.690;9.562;2023-06-24T11:08:10;100039.44;;;24.00;62.92
57708;BME280;43540;51.690;9.562;2023-06-24T11:10:48;100102.59;;;24.44;63.86
57708;BME280;43540;51.690;9.562;2023-06-24T11:13:14;100099.41;;;24.75;63.71
57708;BME280;43540;51.690;9.562;2023-06-24T11:15:41;100069.03;;;24.55;60.25
57708;BME280;43540;51.690;9.562;2023-06-24T11:18:09;100042.03;;;24.56;61.47
57708;BME280;43540;51.690;9.562;2023-06-24T11:20:39;100079.97;;;25.08;62.30
57708;BME280;43540;51.690;9.562;2023-06-24T11:23:10;100076.00;;;24.97;61.21
57708;BME280;43540;51.690;9.562;2023-06-24T11:25:42;100067.81;;;25.12;61.45
57708;BME280;43540;51.690;9.562;2023-06-24T11:28:14;100061.63;;;25.11;60.15
57708;BME280;43540;51.690;9.562;2023-06-24T11:30:40;100014.00;;;24.52;60.25
57708;BME280;43540;51.690;9.562;2023-06-24T11:33:07;100039.91;;;25.00;68.73
57708;BME280;43540;51.690;9.562;2023-06-24T11:35:33;100013.88;;;24.87;58.45
57708;BME280;43540;51.690;9.562;2023-06-24T11:38:02;100014.06;;;24.72;61.08
57708;BME280;43540;51.690;9.562;2023-06-24T11:40:31;100006.84;;;24.73;59.59
57708;BME280;43540;51.690;9.562;2023-06-24T11:43:00;100018.78;;;24.70;67.08
57708;BME280;43540;51.690;9.562;2023-06-24T11:45:27;100036.38;;;24.92;60.48
57708;BME280;43540;51.690;9.562;2023-06-24T11:48:01;100068.03;;;25.30;61.62
57708;BME280;43540;51.690;9.562;2023-06-24T11:50:31;100042.84;;;25.31;61.32
57708;BME280;43540;51.690;9.562;2023-06-24T11:52:58;100024.47;;;25.21;56.91
57708;BME280;43540;51.690;9.562;2023-06-24T11:55:26;100022.41;;;25.23;59.09
57708;BME280;43540;51.690;9.562;2023-06-24T11:58:03;100034.81;;;25.51;55.69
57708;BME280;43540;51.690;9.562;2023-06-24T12:00:36;100061.47;;;25.52;55.46
57708;BME280;43540;51.690;9.562;2023-06-24T12:03:05;100015.41;;;25.22;55.26
57708;BME280;43540;51.690;9.562;2023-06-24T12:05:36;100029.88;;;25.48;60.88
57708;BME280;43540;51.690;9.562;2023-06-24T12:08:07;100023.06;;;25.39;58.82
57708;BME280;43540;51.690;9.562;2023-06-24T12:10:36;99992.91;;;25.17;59.94
57708;BME280;43540;51.690;9.562;2023-06-24T12:13:04;100039.41;;;25.70;56.02
57708;BME280;43540;51.690;9.562;2023-06-24T12:15:37;100009.84;;;25.37;54.17
57708;BME280;43540;51.690;9.562;2023-06-24T12:18:03;100004.50;;;25.44;55.54
57708;BME280;43540;51.690;9.562;2023-06-24T12:20:32;100037.94;;;25.61;54.10
57708;BME280;43540;51.690;9.562;2023-06-24T12:23:03;100012.09;;;25.67;58.81
57708;BME280;43540;51.690;9.562;2023-06-24T12:25:33;100001.16;;;25.75;52.15
57708;BME280;43540;51.690;9.562;2023-06-24T12:27:59;100032.63;;;26.32;55.18
57708;BME280;43540;51.690;9.562;2023-06-24T12:30:26;99948.50;;;25.67;51.55
57708;BME280;43540;51.690;9.562;2023-06-24T12:32:53;99992.69;;;25.91;50.85
57708;BME280;43540;51.690;9.562;2023-06-24T12:35:20;99938.59;;;25.81;52.38
57708;BME280;43540;51.690;9.562;2023-06-24T12:37:46;99967.25;;;25.94;49.84
57708;BME280;43540;51.690;9.562;2023-06-24T12:40:14;99999.91;;;25.91;51.78
57708;BME280;43540;51.690;9.562;2023-06-24T12:42:40;100016.09;;;26.35;49.34
57708;BME280;43540;51.690;9.562;2023-06-24T12:45:07;99962.22;;;26.17;51.54
57708;BME280;43540;51.690;9.562;2023-06-24T12:47:34;99959.91;;;26.27;52.16
57708;BME280;43540;51.690;9.562;2023-06-24T12:50:00;100000.84;;;26.23;51.49
57708;BME280;43540;51.690;9.562;2023-06-24T12:52:27;99975.16;;;25.75;52.64
57708;BME280;43540;51.690;9.562;2023-06-24T12:54:53;99981.75;;;25.79;52.90
57708;BME280;43540;51.690;9.562;2023-06-24T12:57:20;99993.72;;;25.90;50.92
57708;BME280;43540;51.690;9.562;2023-06-24T12:59:46;99972.16;;;26.17;50.96
57708;BME280;43540;51.690;9.562;2023-06-24T13:02:12;99993.88;;;26.08;52.20
57708;BME280;43540;51.690;9.562;2023-06-24T13:04:39;99957.34;;;25.94;51.38
57708;BME280;43540;51.690;9.562;2023-06-24T13:07:05;99950.91;;;26.08;49.51
57708;BME280;43540;51.690;9.562;2023-06-24T13:09:33;99947.28;;;26.34;49.45
57708;BME280;43540;51.690;9.562;2023-06-24T13:12:00;99995.69;;;26.73;49.23
57708;BME280;43540;51.690;9.562;2023-06-24T13:14:26;99992.34;;;26.77;50.86
57708;BME280;43540;51.690;9.562;2023-06-24T13:16:55;99959.88;;;26.41;50.48
57708;BME280;43540;51.690;9.562;2023-06-24T13:19:21;99905.22;;;26.08;52.66
57708;BME280;43540;51.690;9.562;2023-06-24T13:21:48;99994.66;;;26.74;50.62
57708;BME280;43540;51.690;9.562;2023-06-24T13:24:14;99902.81;;;26.32;47.90
57708;BME280;43540;51.690;9.562;2023-06-24T13:26:41;99973.00;;;26.11;47.37
57708;BME280;43540;51.690;9.562;2023-06-24T13:29:07;99935.81;;;26.07;49.71
57708;BME280;43540;51.690;9.562;2023-06-24T13:31:34;99951.81;;;26.34;49.21
57708;BME280;43540;51.690;9.562;2023-06-24T13:34:01;99914.81;;;25.85;48.88
57708;BME280;43540;51.690;9.562;2023-06-24T13:36:35;99946.22;;;26.42;48.45
57708;BME280;43540;51.690;9.562;2023-06-24T13:39:04;99999.34;;;26.85;46.44
57708;BME280;43540;51.690;9.562;2023-06-24T13:41:34;99847.34;;;26.13;46.85
57708;BME280;43540;51.690;9.562;2023-06-24T13:44:07;99843.88;;;26.37;45.13
57708;BME280;43540;51.690;9.562;2023-06-24T13:46:34;99892.34;;;26.62;47.13
57708;BME280;43540;51.690;9.562;2023-06-24T13:49:01;99941.72;;;26.99;49.03
57708;BME280;43540;51.690;9.562;2023-06-24T13:51:31;99963.94;;;27.19;46.64
57708;BME280;43540;51.690;9.562;2023-06-24T13:53:58;99946.19;;;27.12;47.07
57708;BME280;43540;51.690;9.562;2023-06-24T13:56:25;99998.97;;;27.13;49.75
57708;BME280;43540;51.690;9.562;2023-06-24T13:58:53;99999.75;;;26.88;48.49
57708;BME280;43540;51.690;9.562;2023-06-24T14:01:20;99964.41;;;26.47;49.33
57708;BME280;43540;51.690;9.562;2023-06-24T14:03:47;99990.66;;;26.45;50.87
57708;BME280;43540;51.690;9.562;2023-06-24T14:06:16;99988.78;;;26.52;51.29
57708;BME280;43540;51.690;9.562;2023-06-24T14:08:43;99940.94;;;26.16;48.50
57708;BME280;43540;51.690;9.562;2023-06-24T14:11:10;99977.88;;;26.33;49.45
57708;BME280;43540;51.690;9.562;2023-06-24T14:13:37;99990.44;;;26.53;50.30
57708;BME280;43540;51.690;9.562;2023-06-24T14:16:04;99982.63;;;26.76;48.35
57708;BME280;43540;51.690;9.562;2023-06-24T14:18:30;99904.88;;;26.43;50.71
57708;BME280;43540;51.690;9.562;2023-06-24T14:20:59;99970.81;;;27.40;54.21
57708;BME280;43540;51.690;9.562;2023-06-24T14:23:27;99963.72;;;27.46;46.50
57708;BME280;43540;51.690;9.562;2023-06-24T14:25:53;99912.75;;;27.26;47.39
57708;BME280;43540;51.690;9.562;2023-06-24T14:28:21;99879.28;;;26.65;47.98
57708;BME280;43540;51.690;9.562;2023-06-24T14:30:47;99961.84;;;26.58;48.84
57708;BME280;43540;51.690;9.562;2023-06-24T14:33:14;99902.84;;;25.67;54.03
57708;BME280;43540;51.690;9.562;2023-06-24T14:35:41;99965.72;;;26.24;52.10
57708;BME280;43540;51.690;9.562;2023-06-24T14:38:08;99933.34;;;26.51;55.93
57708;BME280;43540;51.690;9.562;2023-06-24T14:40:34;99894.78;;;26.70;51.11
57708;BME280;43540;51.690;9.562;2023-06-24T14:43:01;99913.84;;;26.62;49.87
57708;BME280;43540;51.690;9.562;2023-06-24T14:45:28;99918.88;;;26.83;53.01
57708;BME280;43540;51.690;9.562;2023-06-24T14:47:54;99918.75;;;26.97;51.05
57708;BME280;43540;51.690;9.562;2023-06-24T14:50:21;99946.44;;;27.10;53.26
57708;BME280;43540;51.690;9.562;2023-06-24T14:52:47;99872.75;;;26.55;51.02
57708;BME280;43540;51.690;9.562;2023-06-24T14:55:14;99927.16;;;26.82;50.11
57708;BME280;43540;51.690;9.562;2023-06-24T14:57:40;99916.69;;;26.99;52.22
57708;BME280;43540;51.690;9.562;2023-06-24T15:00:07;99954.22;;;27.18;46.62
57708;BME280;43540;51.690;9.562;2023-06-24T15:02:34;99925.94;;;27.09;48.76
57708;BME280;43540;51.690;9.562;2023-06-24T15:05:02;99947.28;;;27.04;44.86
57708;BME280;43540;51.690;9.562;2023-06-24T15:07:28;99905.72;;;26.69;47.98
57708;BME280;43540;51.690;9.562;2023-06-24T15:09:55;99912.38;;;26.66;50.19
57708;BME280;43540;51.690;9.562;2023-06-24T15:12:21;99887.88;;;26.49;50.61
57708;BME280;43540;51.690;9.562;2023-06-24T15:14:48;99869.78;;;26.88;49.74
57708;BME280;43540;51.690;9.562;2023-06-24T15:17:15;99907.88;;;27.16;45.35
57708;BME280;43540;51.690;9.562;2023-06-24T15:19:41;99891.19;;;27.08;46.51
57708;BME280;43540;51.690;9.562;2023-06-24T15:22:08;99848.56;;;26.55;42.85
57708;BME280;43540;51.690;9.562;2023-06-24T15:24:34;99907.72;;;27.11;45.61
57708;BME280;43540;51.690;9.562;2023-06-24T15:27:01;99912.81;;;27.63;44.65
57708;BME280;43540;51.690;9.562;2023-06-24T15:29:27;99889.16;;;27.46;44.84
57708;BME280;43540;51.690;9.562;2023-06-24T15:31:54;99891.50;;;27.80;46.83
57708;BME280;43540;51.690;9.562;2023-06-24T15:34:20;99891.63;;;28.03;46.47
57708;BME280;43540;51.690;9.562;2023-06-24T15:36:46;99879.88;;;27.97;42.48
57708;BME280;43540;51.690;9.562;2023-06-24T15:39:13;99863.44;;;27.50;41.61
57708;BME280;43540;51.690;9.562;2023-06-24T15:41:39;99873.84;;;27.47;39.79
57708;BME280;43540;51.690;9.562;2023-06-24T15:44:06;99885.78;;;27.51;39.75
57708;BME280;43540;51.690;9.562;2023-06-24T15:46:32;99830.97;;;27.64;39.94
57708;BME280;43540;51.690;9.562;2023-06-24T15:48:59;99835.44;;;27.52;36.24
57708;BME280;43540;51.690;9.562;2023-06-24T15:51:25;99846.75;;;27.78;40.29
57708;BME280;43540;51.690;9.562;2023-06-24T15:53:52;99828.38;;;27.75;43.75
57708;BME280;43540;51.690;9.562;2023-06-24T15:56:18;99854.56;;;28.17;43.31
57708;BME280;43540;51.690;9.562;2023-06-24T15:58:45;99822.16;;;28.05;44.95
57708;BME280;43540;51.690;9.562;2023-06-24T16:01:13;99819.94;;;27.72;43.47
57708;BME280;43540;51.690;9.562;2023-06-24T16:03:39;99847.28;;;27.69;42.65
57708;BME280;43540;51.690;9.562;2023-06-24T16:06:06;99842.88;;;27.56;42.48
57708;BME280;43540;51.690;9.562;2023-06-24T16:08:33;99833.75;;;27.75;41.51
57708;BME280;43540;51.690;9.562;2023-06-24T16:10:59;99878.84;;;28.17;41.52
57708;BME280;43540;51.690;9.562;2023-06-24T16:13:27;99851.94;;;27.62;42.32
57708;BME280;43540;51.690;9.562;2023-06-24T16:15:53;99876.63;;;27.77;43.82
57708;BME280;43540;51.690;9.562;2023-06-24T16:18:20;99866.22;;;27.44;44.04
57708;BME280;43540;51.690;9.562;2023-06-24T16:20:46;99828.75;;;26.74;43.69
57708;BME280;43540;51.690;9.562;2023-06-24T16:23:13;99782.25;;;26.92;44.49
57708;BME280;43540;51.690;9.562;2023-06-24T16:25:39;99893.91;;;27.88;44.54
57708;BME280;43540;51.690;9.562;2023-06-24T16:28:05;99873.81;;;27.72;44.88
57708;BME280;43540;51.690;9.562;2023-06-24T16:30:32;99850.25;;;27.42;43.84
57708;BME280;43540;51.690;9.562;2023-06-24T16:32:59;99838.81;;;27.65;44.57
57708;BME280;43540;51.690;9.562;2023-06-24T16:35:26;99834.78;;;27.19;42.35
57708;BME280;43540;51.690;9.562;2023-06-24T16:37:52;99850.19;;;27.31;42.16
57708;BME280;43540;51.690;9.562;2023-06-24T16:40:18;99844.25;;;27.04;42.31
57708;BME280;43540;51.690;9.562;2023-06-24T16:42:45;99862.13;;;26.91;43.45
57708;BME280;43540;51.690;9.562;2023-06-24T16:45:11;99852.09;;;26.80;43.46
57708;BME280;43540;51.690;9.562;2023-06-24T16:47:38;99830.41;;;26.75;44.33
57708;BME280;43540;51.690;9.562;2023-06-24T16:50:04;99800.16;;;26.80;45.69
57708;BME280;43540;51.690;9.562;2023-06-24T16:52:31;99850.84;;;27.08;45.47
57708;BME280;43540;51.690;9.562;2023-06-24T16:54:59;99828.25;;;27.09;48.36
57708;BME280;43540;51.690;9.562;2023-06-24T16:57:28;99813.63;;;27.23;48.16
57708;BME280;43540;51.690;9.562;2023-06-24T16:59:55;99808.53;;;27.33;47.17
57708;BME280;43540;51.690;9.562;2023-06-24T17:02:21;99817.22;;;27.17;46.07
57708;BME280;43540;51.690;9.562;2023-06-24T17:04:48;99810.38;;;26.71;45.17
57708;BME280;43540;51.690;9.562;2023-06-24T17:07:14;99849.47;;;26.67;50.17
57708;BME280;43540;51.690;9.562;2023-06-24T17:09:41;99814.22;;;26.57;47.81
57708;BME280;43540;51.690;9.562;2023-06-24T17:12:07;99879.63;;;27.01;47.01
57708;BME280;43540;51.690;9.562;2023-06-24T17:14:34;99836.88;;;26.92;45.76
57708;BME280;43540;51.690;9.562;2023-06-24T17:17:01;99819.59;;;26.82;46.23
57708;BME280;43540;51.690;9.562;2023-06-24T17:19:27;99850.16;;;27.12;47.28
57708;BME280;43540;51.690;9.562;2023-06-24T17:21:54;99746.41;;;26.23;48.19
57708;BME280;43540;51.690;9.562;2023-06-24T17:24:20;99734.94;;;26.09;48.16
57708;BME280;43540;51.690;9.562;2023-06-24T17:26:47;99840.63;;;26.60;48.10
57708;BME280;43540;51.690;9.562;2023-06-24T17:29:13;99792.53;;;26.20;48.99
57708;BME280;43540;51.690;9.562;2023-06-24T17:31:41;99802.22;;;25.90;49.57
57708;BME280;43540;51.690;9.562;2023-06-24T17:34:08;99847.34;;;26.13;49.84
57708;BME280;43540;51.690;9.562;2023-06-24T17:36:34;99751.56;;;25.55;50.74
57708;BME280;43540;51.690;9.562;2023-06-24T17:39:01;99761.25;;;25.56;51.53
57708;BME280;43540;51.690;9.562;2023-06-24T17:41:28;99774.53;;;25.38;51.79
57708;BME280;43540;51.690;9.562;2023-06-24T17:43:54;99811.19;;;25.70;51.66
57708;BME280;43540;51.690;9.562;2023-06-24T17:46:21;99749.78;;;25.36;55.74
57708;BME280;43540;51.690;9.562;2023-06-24T17:48:47;99784.38;;;25.57;55.42
57708;BME280;43540;51.690;9.562;2023-06-24T17:51:14;99784.94;;;25.66;54.92
57708;BME280;43540;51.690;9.562;2023-06-24T17:53:41;99777.81;;;25.46;53.48
57708;BME280;43540;51.690;9.562;2023-06-24T17:56:07;99877.94;;;26.12;55.09
57708;BME280;43540;51.690;9.562;2023-06-24T17:58:34;99737.03;;;25.24;53.97
57708;BME280;43540;51.690;9.562;2023-06-24T18:01:01;99815.13;;;25.61;57.38
57708;BME280;43540;51.690;9.562;2023-06-24T18:03:27;99795.63;;;25.34;62.96
57708;BME280;43540;51.690;9.562;2023-06-24T18:05:54;99846.31;;;25.62;67.26
57708;BME280;43540;51.690;9.562;2023-06-24T18:08:20;99794.78;;;25.34;73.79
57708;BME280;43540;51.690;9.562;2023-06-24T18:10:48;99799.13;;;25.28;80.82
57708;BME280;43540;51.690;9.562;2023-06-24T18:13:14;99756.66;;;24.99;88.08
57708;BME280;43540;51.690;9.562;2023-06-24T18:15:41;99829.84;;;25.32;93.94
57708;BME280;43540;51.690;9.562;2023-06-24T18:18:07;99798.16;;;25.03;87.51
57708;BME280;43540;51.690;9.562;2023-06-24T18:20:34;99728.47;;;24.70;85.60
57708;BME280;43540;51.690;9.562;2023-06-24T18:23:01;99809.09;;;24.81;84.54
57708;BME280;43540;51.690;9.562;2023-06-24T18:25:28;99852.78;;;25.21;86.57
57708;BME280;43540;51.690;9.562;2023-06-24T18:27:54;99799.19;;;24.88;84.30
57708;BME280;43540;51.690;9.562;2023-06-24T18:30:21;99809.25;;;24.86;83.28
57708;BME280;43540;51.690;9.562;2023-06-24T18:32:48;99814.22;;;24.96;88.66
57708;BME280;43540;51.690;9.562;2023-06-24T18:35:14;99796.50;;;24.68;90.39
57708;BME280;43540;51.690;9.562;2023-06-24T18:37:41;99750.69;;;24.30;88.69
57708;BME280;43540;51.690;9.562;2023-06-24T18:40:08;99703.53;;;23.96;88.49
57708;BME280;43540;51.690;9.562;2023-06-24T18:42:36;99752.56;;;24.17;92.05
57708;BME280;43540;51.690;9.562;2023-06-24T18:45:03;99713.63;;;23.40;96.71
57708;BME280;43540;51.690;9.562;2023-06-24T18:47:29;99723.13;;;23.49;99.83
57708;BME280;43540;51.690;9.562;2023-06-24T18:49:56;99771.41;;;23.69;100.00
57708;BME280;43540;51.690;9.562;2023-06-24T18:52:23;99793.25;;;23.86;100.00
57708;BME280;43540;51.690;9.562;2023-06-24T18:54:49;99841.88;;;23.89;100.00
57708;BME280;43540;51.690;9.562;2023-06-24T18:57:16;99734.50;;;23.16;100.00
57708;BME280;43540;51.690;9.562;2023-06-24T18:59:43;99809.59;;;23.56;100.00
57708;BME280;43540;51.690;9.562;2023-06-24T19:02:10;99753.03;;;23.18;100.00
57708;BME280;43540;51.690;9.562;2023-06-24T19:04:37;99786.56;;;23.20;100.00
57708;BME280;43540;51.690;9.562;2023-06-24T19:07:04;99730.03;;;22.61;100.00
57708;BME280;43540;51.690;9.562;2023-06-24T19:09:31;99802.00;;;23.18;100.00
57708;BME280;43540;51.690;9.562;2023-06-24T19:11:57;99751.69;;;22.73;100.00
57708;BME280;43540;51.690;9.562;2023-06-24T19:14:24;99817.75;;;23.07;100.00
57708;BME280;43540;51.690;9.562;2023-06-24T19:16:52;99832.97;;;23.06;100.00
57708;BME280;43540;51.690;9.562;2023-06-24T19:19:18;99810.69;;;22.71;100.00
57708;BME280;43540;51.690;9.562;2023-06-24T19:21:45;99718.31;;;22.12;100.00
57708;BME280;43540;51.690;9.562;2023-06-24T19:24:11;99721.75;;;22.06;100.00
57708;BME280;43540;51.690;9.562;2023-06-24T19:26:38;99729.75;;;22.06;100.00
